Time;durP1;ratioP1;P1;durP2;ratioP2;P2;SDS_P1;SDS_P2;PMS_P1;PMS_P2;Temp;Humidity;BMP_temperature;BMP_pressure;BME280_temperature;BME280_humidity;BME280_pressure;Samples;Min_cycle;Max_cycle;Signal;HPM_P1;HPM_P2
2021/03/04 05:10:52;;;;;;;1.20;1.20;;;4.80;99.90;;;;;;5761699;23;20250;-77
2021/03/04 05:13:19;;;;;;;1.10;1.10;;;4.80;99.90;;;;;;5015976;28;20230;-77
2021/03/04 05:15:46;;;;;;;1.10;1.10;;;4.90;99.90;;;;;;5016436;28;20625;-78
2021/03/04 05:18:13;;;;;;;1.10;1.10;;;4.80;99.90;;;;;;5016660;28;20663;-77
2021/03/04 05:20:40;;;;;;;1.20;1.20;;;4.60;99.90;;;;;;5018776;28;20257;-78
2021/03/04 05:23:07;;;;;;;1.30;1.30;;;4.60;99.90;;;;;;5019089;28;20614;-78
2021/03/04 05:25:34;;;;;;;1.33;1.33;;;4.60;99.90;;;;;;5020372;28;20216;-77
2021/03/04 05:28:02;;;;;;;1.10;1.10;;;4.70;99.90;;;;;;5030908;28;20206;-76
2021/03/04 05:30:29;;;;;;;1.20;1.20;;;4.70;99.90;;;;;;5039018;28;20215;-76
2021/03/04 05:32:56;;;;;;;1.30;1.30;;;4.90;99.90;;;;;;5029498;28;20203;-78
2021/03/04 05:35:23;;;;;;;1.10;1.10;;;4.90;99.90;;;;;;5030991;28;20267;-79
2021/03/04 05:37:50;;;;;;;1.20;1.20;;;4.90;99.90;;;;;;5017172;28;20206;-77
2021/03/04 05:40:18;;;;;;;1.10;1.10;;;4.90;99.90;;;;;;5035208;28;20265;-77
2021/03/04 05:42:44;;;;;;;1.20;1.20;;;4.80;99.90;;;;;;5043261;28;20245;-77
2021/03/04 05:45:15;;;;;;;1.20;1.20;;;4.80;99.90;;;;;;5049937;28;20698;-77
2021/03/04 05:47:43;;;;;;;1.10;1.10;;;4.70;99.90;;;;;;5052765;28;20194;-77
2021/03/04 05:50:14;;;;;;;1.10;1.10;;;4.70;99.90;;;;;;5051868;28;20206;-77
2021/03/04 05:52:46;;;;;;;1.10;1.10;;;4.80;99.90;;;;;;5050539;28;20233;-77
2021/03/04 05:55:15;;;;;;;1.10;1.10;;;4.80;99.90;;;;;;5044420;28;20222;-76
2021/03/04 05:57:44;;;;;;;1.30;1.30;;;4.90;99.90;;;;;;5053080;28;20203;-77
2021/03/04 06:00:13;;;;;;;1.37;1.37;;;5.20;99.90;;;;;;5041180;28;20256;-77
2021/03/04 06:02:43;;;;;;;1.20;1.20;;;4.90;99.90;;;;;;5041891;28;20272;-74
2021/03/04 06:05:12;;;;;;;1.40;1.40;;;5.00;99.90;;;;;;5035675;28;20265;-77
2021/03/04 06:07:42;;;;;;;1.10;1.10;;;5.20;99.90;;;;;;5023755;28;20204;-77
2021/03/04 06:10:10;;;;;;;1.20;1.20;;;5.20;99.90;;;;;;5006187;28;20210;-79
2021/03/04 06:12:37;;;;;;;1.33;1.33;;;5.20;99.90;;;;;;5018470;28;20277;-77
2021/03/04 06:15:06;;;;;;;1.30;1.30;;;5.10;99.90;;;;;;5016338;28;20595;-77
2021/03/04 06:17:34;;;;;;;1.17;1.17;;;5.20;99.90;;;;;;5015811;28;20225;-77
2021/03/04 06:20:03;;;;;;;1.30;1.30;;;5.30;99.90;;;;;;5014467;28;20207;-77
2021/03/04 06:22:31;;;;;;;1.03;1.03;;;5.20;99.90;;;;;;5016013;28;20227;-77
2021/03/04 06:25:00;;;;;;;1.27;1.27;;;5.20;99.90;;;;;;5015541;28;20227;-77
2021/03/04 06:27:29;;;;;;;1.20;1.20;;;5.30;99.90;;;;;;5016318;28;20203;-77
2021/03/04 06:29:57;;;;;;;1.23;1.23;;;5.30;99.90;;;;;;5016540;28;20203;-77
2021/03/04 06:32:25;;;;;;;1.20;1.20;;;5.30;99.90;;;;;;5016375;28;20224;-77
2021/03/04 06:35:04;;;;;;;1.20;1.20;;;5.20;99.90;;;;;;5015800;28;20623;-77
2021/03/04 06:37:32;;;;;;;1.10;1.10;;;5.40;99.90;;;;;;5016356;28;20203;-77
2021/03/04 06:39:59;;;;;;;1.10;1.10;;;5.50;99.90;;;;;;5016395;28;20203;-77
2021/03/04 06:42:26;;;;;;;1.20;1.20;;;5.60;99.90;;;;;;5016189;28;20219;-77
2021/03/04 06:44:55;;;;;;;1.40;1.40;;;5.70;99.90;;;;;;5016446;28;20246;-77
2021/03/04 06:47:23;;;;;;;1.17;1.17;;;5.70;99.90;;;;;;5016024;28;20203;-78
2021/03/04 06:49:52;;;;;;;1.27;1.27;;;5.50;99.90;;;;;;5016332;28;20231;-77
2021/03/04 06:52:39;;;;;;;1.17;1.17;;;5.60;99.90;;;;;;5016286;28;20211;-77
2021/03/04 06:55:10;;;;;;;1.20;1.20;;;5.70;99.90;;;;;;5016484;28;20199;-77
2021/03/04 06:57:37;;;;;;;1.37;1.37;;;5.70;99.90;;;;;;5015992;28;20211;-77
2021/03/04 07:00:06;;;;;;;1.27;1.27;;;5.60;99.90;;;;;;5015852;28;20726;-77
2021/03/04 07:02:33;;;;;;;1.10;1.10;;;5.60;99.90;;;;;;5015996;28;20219;-77
2021/03/04 07:05:02;;;;;;;1.20;1.20;;;5.70;99.90;;;;;;5016441;28;20234;-78
2021/03/04 07:07:30;;;;;;;1.17;1.17;;;5.80;99.90;;;;;;5016638;28;20223;-77
2021/03/04 07:09:59;;;;;;;1.20;1.20;;;5.90;99.90;;;;;;5016960;28;20211;-78
2021/03/04 07:12:26;;;;;;;1.10;1.10;;;6.00;99.90;;;;;;5016076;28;20736;-77
2021/03/04 07:14:54;;;;;;;1.10;1.10;;;6.10;99.90;;;;;;5015696;28;20626;-77
2021/03/04 07:17:22;;;;;;;1.00;1.00;;;6.10;99.90;;;;;;5016476;28;20211;-77
2021/03/04 07:19:53;;;;;;;1.20;1.20;;;6.20;99.90;;;;;;5015984;28;20290;-77
2021/03/04 07:22:21;;;;;;;1.10;1.10;;;6.20;99.90;;;;;;5015881;28;20224;-78
2021/03/04 07:24:48;;;;;;;1.10;1.10;;;6.20;99.90;;;;;;5015470;28;20219;-77
2021/03/04 07:27:17;;;;;;;1.10;1.10;;;6.30;99.90;;;;;;5014930;28;20234;-77
2021/03/04 07:29:44;;;;;;;1.10;1.10;;;6.30;99.90;;;;;;5014264;28;20730;-77
2021/03/04 07:32:13;;;;;;;1.00;1.00;;;6.30;99.90;;;;;;5013916;28;20219;-77
2021/03/04 07:34:42;;;;;;;1.07;1.07;;;6.40;99.90;;;;;;5013678;28;20564;-77
2021/03/04 07:37:10;;;;;;;1.10;1.10;;;6.40;99.90;;;;;;5014086;28;20203;-77
2021/03/04 07:39:39;;;;;;;1.00;1.00;;;6.60;99.90;;;;;;5013886;28;20211;-77
2021/03/04 07:42:18;;;;;;;1.20;1.20;;;6.70;99.90;;;;;;5014038;28;20219;-77
2021/03/04 07:44:45;;;;;;;1.10;1.10;;;6.70;99.90;;;;;;5015495;28;20219;-77
2021/03/04 07:47:12;;;;;;;1.13;1.13;;;6.80;99.90;;;;;;5015401;28;20199;-77
2021/03/04 07:49:43;;;;;;;0.90;0.90;;;6.80;99.90;;;;;;5015669;28;20332;-77
2021/03/04 07:52:13;;;;;;;1.20;1.20;;;6.80;99.90;;;;;;5015759;28;20224;-77
2021/03/04 07:54:42;;;;;;;1.00;1.00;;;6.90;99.90;;;;;;5015606;28;20203;-77
2021/03/04 07:57:10;;;;;;;1.10;1.10;;;6.90;99.90;;;;;;5014978;28;20200;-77
2021/03/04 07:59:51;;;;;;;1.10;1.10;;;6.90;99.90;;;;;;5014914;28;20209;-77
2021/03/04 08:02:26;;;;;;;1.07;1.07;;;6.80;99.90;;;;;;5015470;28;20277;-77
2021/03/04 08:05:05;;;;;;;1.10;1.10;;;6.90;99.90;;;;;;5013260;28;20218;-77
2021/03/04 08:07:32;;;;;;;1.00;1.00;;;6.90;99.90;;;;;;5013301;28;20261;-77
2021/03/04 08:10:10;;;;;;;1.10;1.10;;;6.90;99.90;;;;;;5013511;28;20628;-77
2021/03/04 08:12:51;;;;;;;1.40;1.40;;;6.90;99.90;;;;;;5012923;28;20278;-76
2021/03/04 08:15:21;;;;;;;1.10;1.10;;;6.90;99.90;;;;;;5012771;28;20726;-77
2021/03/04 08:17:48;;;;;;;1.20;1.20;;;6.90;99.90;;;;;;5012708;28;20258;-77
2021/03/04 08:20:17;;;;;;;1.27;1.27;;;7.20;99.90;;;;;;5012654;28;20294;-76
2021/03/04 08:22:47;;;;;;;1.03;1.03;;;7.10;99.90;;;;;;5012696;28;20746;-77
2021/03/04 08:25:18;;;;;;;0.90;0.90;;;7.30;99.90;;;;;;5012464;28;20226;-77
2021/03/04 08:27:45;;;;;;;1.00;1.00;;;7.40;99.90;;;;;;5012992;28;20192;-77
2021/03/04 08:30:14;;;;;;;1.00;1.00;;;7.70;99.90;;;;;;5012878;28;20207;-77
2021/03/04 08:32:43;;;;;;;1.03;1.03;;;7.70;99.90;;;;;;5017721;28;20265;-77
2021/03/04 08:35:18;;;;;;;1.10;1.10;;;7.90;99.90;;;;;;5019462;28;20203;-77
2021/03/04 08:37:55;;;;;;;1.00;1.00;;;8.10;99.90;;;;;;5021116;28;20207;-77
2021/03/04 08:40:22;;;;;;;0.95;0.95;;;8.40;99.90;;;;;;5020886;28;20255;-77
2021/03/04 08:42:49;;;;;;;1.02;1.02;;;8.50;99.90;;;;;;5022185;28;20202;-77
2021/03/04 08:45:26;;;;;;;1.08;1.08;;;8.60;99.90;;;;;;5021480;28;20223;-77
2021/03/04 08:47:54;;;;;;;0.80;0.80;;;8.80;99.90;;;;;;5022501;28;20207;-77
2021/03/04 08:50:32;;;;;;;0.80;0.80;;;9.60;99.90;;;;;;5022461;28;20230;-76
2021/03/04 08:52:59;;;;;;;1.05;1.05;;;9.40;99.90;;;;;;5021542;28;20251;-77
2021/03/04 08:55:27;;;;;;;1.00;1.00;;;9.70;99.90;;;;;;5023433;28;20195;-77
2021/03/04 08:58:04;;;;;;;0.90;0.90;;;10.00;99.90;;;;;;5020885;28;20565;-76
2021/03/04 09:00:31;;;;;;;1.00;1.00;;;10.20;99.90;;;;;;5018787;28;20227;-77
2021/03/04 09:03:19;;;;;;;1.08;1.08;;;10.50;99.90;;;;;;5019833;28;20199;-78
2021/03/04 09:05:47;;;;;;;0.90;0.90;;;10.80;99.90;;;;;;5022234;28;20223;-77
2021/03/04 09:08:16;;;;;;;0.70;0.70;;;11.10;99.90;;;;;;5020740;28;20211;-77
2021/03/04 09:10:47;;;;;;;0.82;0.82;;;11.10;99.90;;;;;;5021335;28;20235;-77
2021/03/04 09:13:19;;;;;;;0.70;0.70;;;11.20;99.90;;;;;;5021365;28;20218;-77
2021/03/04 09:15:49;;;;;;;0.70;0.70;;;11.40;99.90;;;;;;5020803;28;20676;-77
2021/03/04 09:18:19;;;;;;;0.75;0.75;;;11.40;99.90;;;;;;5020022;28;20207;-77
2021/03/04 09:20:47;;;;;;;0.70;0.70;;;11.50;99.90;;;;;;5019977;28;20251;-77
2021/03/04 09:23:15;;;;;;;0.70;0.70;;;11.90;99.90;;;;;;5012742;28;20214;-77
2021/03/04 09:25:42;;;;;;;0.70;0.70;;;11.80;99.90;;;;;;5012573;28;20227;-77
2021/03/04 09:28:12;;;;;;;0.73;0.73;;;11.90;99.90;;;;;;5012314;28;20614;-77
2021/03/04 09:30:40;;;;;;;0.70;0.70;;;12.10;99.90;;;;;;5012314;28;20227;-77
2021/03/04 09:33:16;;;;;;;0.60;0.60;;;12.30;99.90;;;;;;5012344;28;20631;-77
2021/03/04 09:35:58;;;;;;;0.70;0.70;;;12.20;99.90;;;;;;5012910;28;20183;-77
2021/03/04 09:38:28;;;;;;;0.80;0.80;;;12.30;99.90;;;;;;5013223;28;20207;-76
2021/03/04 09:41:09;;;;;;;0.60;0.60;;;12.40;99.90;;;;;;5013247;28;20227;-78
2021/03/04 09:43:40;;;;;;;0.80;0.80;;;12.50;99.90;;;;;;5012606;28;20203;-77
2021/03/04 09:46:12;;;;;;;0.70;0.70;;;12.40;99.90;;;;;;5012989;28;20203;-77
2021/03/04 09:48:39;;;;;;;0.70;0.70;;;12.50;99.90;;;;;;5013998;28;20219;-78
2021/03/04 09:51:07;;;;;;;0.70;0.70;;;12.20;99.90;;;;;;5016786;28;20226;-77
2021/03/04 09:53:45;;;;;;;0.70;0.70;;;12.40;99.90;;;;;;5017511;28;20203;-77
2021/03/04 09:56:11;;;;;;;0.70;0.70;;;12.50;99.90;;;;;;5017834;28;20554;-77
2021/03/04 09:58:43;;;;;;;0.63;0.63;;;12.60;99.90;;;;;;5018592;28;20199;-78
2021/03/04 10:01:10;;;;;;;0.70;0.70;;;12.80;99.90;;;;;;5017635;28;20227;-78
2021/03/04 10:03:43;;;;;;;0.70;0.70;;;12.90;99.90;;;;;;5018344;28;20563;-78
2021/03/04 10:06:20;;;;;;;0.60;0.60;;;12.80;99.90;;;;;;5017939;28;20278;-78
2021/03/04 10:08:53;;;;;;;0.80;0.80;;;12.80;99.90;;;;;;5017739;28;20203;-78
2021/03/04 10:11:22;;;;;;;0.70;0.70;;;12.70;99.90;;;;;;5018697;28;20231;-78
2021/03/04 10:13:49;;;;;;;0.80;0.80;;;12.60;99.90;;;;;;5017410;28;20626;-78
2021/03/04 10:16:16;;;;;;;0.60;0.60;;;12.60;99.90;;;;;;5018176;28;20620;-78
2021/03/04 10:18:44;;;;;;;0.50;0.50;;;12.60;99.90;;;;;;5017840;28;20199;-78
2021/03/04 10:21:12;;;;;;;0.60;0.60;;;12.60;99.90;;;;;;5018192;28;20223;-78
2021/03/04 10:23:39;;;;;;;0.60;0.60;;;12.70;99.90;;;;;;5017529;28;20204;-78
2021/03/04 10:26:06;;;;;;;0.70;0.70;;;12.60;99.90;;;;;;5016966;28;20228;-77
2021/03/04 10:28:33;;;;;;;0.60;0.60;;;12.70;99.90;;;;;;5016471;28;20611;-78
2021/03/04 10:31:00;;;;;;;0.70;0.70;;;12.60;99.90;;;;;;5018068;28;20771;-77
2021/03/04 10:33:28;;;;;;;0.60;0.60;;;12.50;99.90;;;;;;5018760;28;20214;-78
2021/03/04 10:35:55;;;;;;;0.70;0.70;;;12.50;99.90;;;;;;5018088;28;20195;-77
2021/03/04 10:38:21;;;;;;;0.68;0.68;;;12.40;99.90;;;;;;5017382;28;20207;-79
2021/03/04 10:40:49;;;;;;;0.80;0.80;;;12.50;99.90;;;;;;5017134;28;20228;-78
2021/03/04 10:43:16;;;;;;;0.70;0.70;;;12.20;99.90;;;;;;5018102;28;20204;-75
2021/03/04 10:45:43;;;;;;;0.70;0.70;;;11.90;99.90;;;;;;5015082;28;20607;-77
2021/03/04 10:48:12;;;;;;;0.80;0.80;;;11.70;99.90;;;;;;5014682;28;20207;-77
2021/03/04 10:50:39;;;;;;;0.82;0.82;;;11.50;99.90;;;;;;5014844;28;20227;-77
2021/03/04 10:53:07;;;;;;;0.80;0.80;;;11.30;99.90;;;;;;5015080;28;20668;-77
2021/03/04 10:55:40;;;;;;;0.70;0.70;;;11.30;99.90;;;;;;5000505;28;20641;-77
2021/03/04 10:58:08;;;;;;;0.80;0.80;;;11.50;99.90;;;;;;5004815;28;20569;-77
2021/03/04 11:00:35;;;;;;;0.60;0.60;;;11.50;99.90;;;;;;5008136;28;20303;-76
2021/03/04 11:03:03;;;;;;;0.60;0.60;;;11.50;99.90;;;;;;5009712;28;20569;-77
2021/03/04 11:05:30;;;;;;;0.70;0.70;;;11.30;99.90;;;;;;5014087;28;20280;-76
2021/03/04 11:07:57;;;;;;;0.70;0.70;;;11.00;99.90;;;;;;5014181;28;20252;-76
2021/03/04 11:10:24;;;;;;;0.80;0.80;;;10.60;99.90;;;;;;5013877;28;20228;-76
2021/03/04 11:12:51;;;;;;;1.00;1.00;;;10.60;99.90;;;;;;5020004;28;20635;-74
2021/03/04 11:15:19;;;;;;;0.93;0.93;;;10.40;99.90;;;;;;5014673;28;20199;-76
2021/03/04 11:17:49;;;;;;;0.70;0.70;;;10.00;99.90;;;;;;5016850;28;20211;-80
2021/03/04 11:20:17;;;;;;;0.80;0.80;;;9.80;99.90;;;;;;5018266;28;20384;-80
2021/03/04 11:22:47;;;;;;;0.95;0.95;;;9.70;99.90;;;;;;5017231;28;20207;-74
2021/03/04 11:25:15;;;;;;;0.90;0.90;;;9.30;99.90;;;;;;5027748;23;20263;-74
2021/03/04 11:27:42;;;;;;;0.90;0.90;;;9.40;99.90;;;;;;5013561;28;20214;-76
2021/03/04 11:30:10;;;;;;;0.82;0.82;;;;;;;;;;5013410;28;20203;-76
2021/03/04 11:32:37;;;;;;;1.00;1.00;;;9.20;99.90;;;;;;5013491;28;20624;-75
2021/03/04 11:35:06;;;;;;;0.90;0.90;;;9.70;99.90;;;;;;5013165;28;20227;-75
2021/03/04 11:37:34;;;;;;;0.80;0.80;;;;;;;;;;5012081;28;20257;-75
2021/03/04 11:40:01;;;;;;;0.80;0.80;;;9.20;99.90;;;;;;5013019;28;20249;-75
2021/03/04 11:42:28;;;;;;;0.90;0.90;;;;;;;;;;5012154;28;20210;-74
2021/03/04 11:44:55;;;;;;;0.80;0.80;;;9.70;99.90;;;;;;5012974;28;20247;-75
2021/03/04 11:47:22;;;;;;;0.80;0.80;;;9.40;99.90;;;;;;5013234;28;20203;-75
2021/03/04 11:49:52;;;;;;;1.00;1.00;;;9.70;99.90;;;;;;5013273;28;20239;-75
2021/03/04 11:52:20;;;;;;;0.90;0.90;;;9.70;99.90;;;;;;5013033;28;20231;-75
2021/03/04 11:54:47;;;;;;;0.88;0.88;;;10.10;99.90;;;;;;5013362;28;20223;-75
2021/03/04 11:57:14;;;;;;;0.70;0.70;;;9.90;99.90;;;;;;5010912;28;20675;-75
2021/03/04 11:59:41;;;;;;;0.70;0.70;;;10.10;99.90;;;;;;4995487;28;20545;-75
2021/03/04 12:02:08;;;;;;;0.80;0.80;;;;;;;;;;4994335;28;20274;-75
2021/03/04 12:04:36;;;;;;;0.80;0.80;;;10.10;99.90;;;;;;4994631;28;20228;-75
2021/03/04 12:07:03;;;;;;;0.80;0.80;;;9.80;99.90;;;;;;4993446;28;20282;-75
2021/03/04 12:09:31;;;;;;;0.80;0.80;;;;;;;;;;4993237;28;20568;-74
2021/03/04 12:11:58;;;;;;;0.85;0.85;;;10.10;99.90;;;;;;4992929;28;20203;-75
2021/03/04 12:14:25;;;;;;;0.90;0.90;;;;;;;;;;4993005;28;20228;-75
2021/03/04 12:16:52;;;;;;;0.80;0.80;;;10.30;99.90;;;;;;4993258;28;20208;-74
2021/03/04 12:19:19;;;;;;;0.80;0.80;;;10.40;99.90;;;;;;4993075;28;20200;-74
2021/03/04 12:21:46;;;;;;;0.70;0.70;;;10.70;99.90;;;;;;4992936;28;20410;-75
2021/03/04 12:24:14;;;;;;;0.80;0.80;;;10.80;99.90;;;;;;4992745;28;20798;-75
2021/03/04 12:26:44;;;;;;;0.70;0.70;;;10.90;99.90;;;;;;4993077;28;20297;-75
2021/03/04 12:29:11;;;;;;;0.60;0.60;;;10.80;99.90;;;;;;4993210;28;20204;-75
2021/03/04 12:31:40;;;;;;;0.80;0.80;;;10.80;99.90;;;;;;4992919;28;20208;-74
2021/03/04 12:34:07;;;;;;;0.80;0.80;;;;;;;;;;4992963;28;20281;-75
2021/03/04 12:36:34;;;;;;;0.70;0.70;;;10.50;99.90;;;;;;4992817;28;20251;-75
2021/03/04 12:39:02;;;;;;;0.80;0.80;;;10.70;99.90;;;;;;4992637;28;20207;-75
2021/03/04 12:41:30;;;;;;;0.70;0.70;;;10.50;99.90;;;;;;4992611;28;20266;-74
2021/03/04 12:43:57;;;;;;;0.80;0.80;;;;;;;;;;4992792;28;20292;-74
2021/03/04 12:46:26;;;;;;;0.88;0.88;;;;;;;;;;4992720;28;20227;-75
2021/03/04 12:48:53;;;;;;;0.80;0.80;;;10.30;99.90;;;;;;4992546;28;20751;-74
2021/03/04 12:51:20;;;;;;;0.88;0.88;;;;;;;;;;4992404;28;20242;-75
2021/03/04 12:53:48;;;;;;;0.80;0.80;;;10.40;99.90;;;;;;4992829;28;20204;-75
2021/03/04 12:56:15;;;;;;;0.80;0.80;;;10.00;99.90;;;;;;4992619;28;20776;-75
2021/03/04 12:58:43;;;;;;;0.85;0.85;;;10.10;99.90;;;;;;4992513;28;20256;-75
2021/03/04 13:01:10;;;;;;;0.80;0.80;;;;;;;;;;4992474;28;20204;-75
2021/03/04 13:03:37;;;;;;;0.80;0.80;;;10.00;99.90;;;;;;4992138;28;20664;-75
2021/03/04 13:06:05;;;;;;;0.90;0.90;;;10.10;99.90;;;;;;4992358;28;20234;-74
2021/03/04 13:08:53;;;;;;;0.80;0.80;;;9.80;99.90;;;;;;4992484;28;20239;-75
2021/03/04 13:11:20;;;;;;;0.70;0.70;;;;;;;;;;4992401;28;20230;-75
2021/03/04 13:13:48;;;;;;;0.80;0.80;;;9.60;99.90;;;;;;4992656;28;20727;-75
2021/03/04 13:16:15;;;;;;;0.80;0.80;;;9.50;99.90;;;;;;4992447;28;20199;-75
2021/03/04 13:18:42;;;;;;;0.80;0.80;;;;;;;;;;4992130;28;20580;-75
2021/03/04 13:21:09;;;;;;;1.00;1.00;;;9.60;99.90;;;;;;4992480;28;20236;-75
2021/03/04 13:23:36;;;;;;;0.90;0.90;;;;;;;;;;4992121;28;20227;-75
2021/03/04 13:26:03;;;;;;;0.90;0.90;;;9.00;99.90;;;;;;5006349;28;20223;-75
2021/03/04 13:28:30;;;;;;;0.80;0.80;;;8.80;99.90;;;;;;5015938;28;20225;-75
2021/03/04 13:30:58;;;;;;;1.07;1.07;;;8.60;99.90;;;;;;5015851;28;20206;-75
2021/03/04 13:33:26;;;;;;;1.00;1.00;;;8.20;99.90;;;;;;5015795;28;20217;-75
2021/03/04 13:35:53;;;;;;;1.20;1.20;;;8.20;99.90;;;;;;5015901;28;20265;-75
2021/03/04 13:38:20;;;;;;;1.10;1.10;;;8.20;99.90;;;;;;5015680;28;20211;-75
2021/03/04 13:40:47;;;;;;;1.00;1.00;;;;;;;;;;5015508;28;20207;-75
2021/03/04 13:43:16;;;;;;;1.00;1.00;;;;;;;;;;5007979;28;20567;-74
2021/03/04 13:45:43;;;;;;;0.90;0.90;;;;;;;;;;5034594;28;20272;-75
2021/03/04 13:48:11;;;;;;;1.00;1.00;;;8.40;99.90;;;;;;5034994;28;20207;-76
2021/03/04 13:50:38;;;;;;;1.10;1.10;;;7.90;99.90;;;;;;5035042;28;20627;-74
2021/03/04 13:53:05;;;;;;;1.00;1.00;;;;;;;;;;5034832;28;20214;-74
2021/03/04 13:55:32;;;;;;;1.00;1.00;;;8.00;99.90;;;;;;5034919;28;20222;-74
2021/03/04 13:57:59;;;;;;;0.90;0.90;;;;;;;;;;5033340;28;20217;-74
2021/03/04 14:00:26;;;;;;;1.00;1.00;;;7.80;99.90;;;;;;5033018;28;20619;-74
2021/03/04 14:02:55;;;;;;;1.00;1.00;;;8.00;99.90;;;;;;5033199;28;20290;-72
2021/03/04 14:05:23;;;;;;;1.00;1.00;;;7.90;99.90;;;;;;5032569;28;20591;-73
2021/03/04 14:07:50;;;;;;;1.07;1.07;;;7.90;99.90;;;;;;5033267;28;20202;-72
2021/03/04 14:10:17;;;;;;;1.10;1.10;;;7.60;99.90;;;;;;5033386;28;20621;-72
2021/03/04 14:12:46;;;;;;;1.17;1.17;;;7.60;99.90;;;;;;5033145;28;20207;-76
2021/03/04 14:15:14;;;;;;;1.17;1.17;;;7.50;99.90;;;;;;5033598;28;20235;-75
2021/03/04 14:17:41;;;;;;;1.13;1.13;;;7.40;99.90;;;;;;5033092;28;20667;-74
2021/03/04 14:20:13;;;;;;;1.00;1.00;;;7.40;99.90;;;;;;5031657;28;20213;-76
2021/03/04 14:22:41;;;;;;;1.00;1.00;;;7.40;99.90;;;;;;5014695;28;20652;-74
2021/03/04 14:25:10;;;;;;;1.00;1.00;;;7.50;99.90;;;;;;5014209;28;20262;-73
2021/03/04 14:27:37;;;;;;;1.10;1.10;;;;;;;;;;5011301;28;20207;-72
2021/03/04 14:30:06;;;;;;;1.10;1.10;;;7.40;99.90;;;;;;5006724;28;20203;-72
2021/03/04 14:32:33;;;;;;;1.00;1.00;;;7.50;99.90;;;;;;5003445;28;20211;-72
2021/03/04 14:35:00;;;;;;;1.00;1.00;;;;;;;;;;5002601;28;20219;-72
2021/03/04 14:37:28;;;;;;;0.90;0.90;;;;;;;;;;4992980;28;20692;-72
2021/03/04 14:39:56;;;;;;;1.03;1.03;;;7.80;99.90;;;;;;4994054;28;20631;-73
2021/03/04 14:42:23;;;;;;;1.00;1.00;;;7.60;99.90;;;;;;4994659;28;20207;-73
2021/03/04 14:44:51;;;;;;;1.10;1.10;;;7.60;99.90;;;;;;4994606;28;20267;-75
2021/03/04 14:47:18;;;;;;;1.00;1.00;;;7.60;99.90;;;;;;4994251;28;20737;-74
2021/03/04 14:49:45;;;;;;;0.97;0.97;;;7.60;99.90;;;;;;4994296;28;20240;-74
2021/03/04 14:52:13;;;;;;;0.90;0.90;;;7.50;99.90;;;;;;4994338;28;20204;-74
2021/03/04 14:54:40;;;;;;;1.00;1.00;;;7.70;99.90;;;;;;4994679;28;20228;-74
2021/03/04 14:57:07;;;;;;;1.00;1.00;;;7.60;99.90;;;;;;4994583;28;20665;-74
2021/03/04 14:59:35;;;;;;;1.10;1.10;;;;;;;;;;4994208;28;20669;-74
2021/03/04 15:02:02;;;;;;;0.90;0.90;;;;;;;;;;4994416;28;20251;-74
2021/03/04 15:04:29;;;;;;;1.03;1.03;;;7.60;99.90;;;;;;4994302;28;20310;-74
2021/03/04 15:06:56;;;;;;;0.93;0.93;;;7.40;99.90;;;;;;4994350;28;20267;-74
2021/03/04 15:09:23;;;;;;;1.10;1.10;;;7.50;99.90;;;;;;4994354;28;20555;-75
2021/03/04 15:11:50;;;;;;;0.90;0.90;;;7.10;99.90;;;;;;4994688;28;20739;-75
2021/03/04 15:14:18;;;;;;;1.10;1.10;;;7.20;99.90;;;;;;5002813;28;20290;-75
2021/03/04 15:16:47;;;;;;;1.00;1.00;;;7.00;99.90;;;;;;5000719;28;20664;-74
2021/03/04 15:19:29;;;;;;;1.20;1.20;;;7.10;99.90;;;;;;4996798;28;20672;-76
2021/03/04 15:21:57;;;;;;;1.07;1.07;;;7.20;99.90;;;;;;4996174;28;20624;-74
2021/03/04 15:24:24;;;;;;;1.00;1.00;;;;;;;;;;5000591;28;20223;-76
2021/03/04 15:26:51;;;;;;;1.00;1.00;;;;;;;;;;5006306;28;20215;-74
2021/03/04 15:29:19;;;;;;;1.17;1.17;;;6.80;99.90;;;;;;5003472;28;20204;-77
2021/03/04 15:31:46;;;;;;;1.30;1.30;;;;;;;;;;5006641;28;20664;-78
2021/03/04 15:34:14;;;;;;;1.20;1.20;;;;;;;;;;5003305;28;20229;-78
2021/03/04 15:36:41;;;;;;;1.10;1.10;;;;;;;;;;4999437;28;20200;-74
2021/03/04 15:39:10;;;;;;;1.10;1.10;;;6.90;99.90;;;;;;4999940;28;20208;-74
2021/03/04 15:41:37;;;;;;;1.10;1.10;;;6.70;99.90;;;;;;5005975;28;20338;-74
2021/03/04 15:44:05;;;;;;;1.30;1.30;;;7.40;99.90;;;;;;5001797;28;20271;-74
2021/03/04 15:46:33;;;;;;;1.00;1.00;;;6.70;99.90;;;;;;4999407;28;20211;-74
2021/03/04 15:49:01;;;;;;;1.20;1.20;;;6.80;99.90;;;;;;4989421;28;20215;-74
2021/03/04 15:51:28;;;;;;;0.93;0.93;;;6.50;99.90;;;;;;4990025;28;20203;-75
2021/03/04 15:53:55;;;;;;;1.10;1.10;;;6.50;99.90;;;;;;4991952;28;20652;-74
2021/03/04 15:56:22;;;;;;;1.13;1.13;;;6.70;99.90;;;;;;4999668;28;20607;-75
2021/03/04 15:58:50;;;;;;;1.00;1.00;;;;;;;;;;4995979;28;20698;-75
2021/03/04 16:01:17;;;;;;;1.10;1.10;;;6.70;99.90;;;;;;4992737;28;20204;-76
2021/03/04 16:03:45;;;;;;;1.20;1.20;;;6.80;99.90;;;;;;4992795;28;20200;-77
2021/03/04 16:06:12;;;;;;;1.07;1.07;;;;;;;;;;4992899;28;20227;-78
2021/03/04 16:08:41;;;;;;;1.10;1.10;;;;;;;;;;4996528;28;20204;-76
2021/03/04 16:11:08;;;;;;;1.20;1.20;;;;;;;;;;5002658;28;20212;-76
2021/03/04 16:13:35;;;;;;;1.20;1.20;;;;;;;;;;5002895;28;20203;-76
2021/03/04 16:16:03;;;;;;;0.90;0.90;;;;;;;;;;5003261;28;20200;-77
2021/03/04 16:18:30;;;;;;;1.10;1.10;;;6.60;99.90;;;;;;5001079;28;20200;-76
2021/03/04 16:20:58;;;;;;;1.17;1.17;;;6.70;99.90;;;;;;5013260;28;20204;-75
2021/03/04 16:23:26;;;;;;;1.07;1.07;;;7.20;99.90;;;;;;5011138;28;20250;-73
2021/03/04 16:25:53;;;;;;;0.90;0.90;;;;;;;;;;5014294;28;20242;-73
2021/03/04 16:28:21;;;;;;;1.20;1.20;;;;;;;;;;4994089;28;20211;-75
2021/03/04 16:30:48;;;;;;;1.00;1.00;;;;;;;;;;4993056;28;20258;-78
2021/03/04 16:33:16;;;;;;;1.20;1.20;;;;;;;;;;5002009;28;20666;-78
2021/03/04 16:35:46;;;;;;;1.20;1.20;;;6.40;99.90;;;;;;5002946;28;20786;-78
2021/03/04 16:38:15;;;;;;;1.00;1.00;;;6.30;99.90;;;;;;4996669;28;20232;-77
2021/03/04 16:40:42;;;;;;;1.10;1.10;;;;;;;;;;4996749;28;20211;-77
2021/03/04 16:43:10;;;;;;;1.00;1.00;;;;;;;;;;4993453;28;20204;-77
2021/03/04 16:45:36;;;;;;;1.00;1.00;;;6.70;99.90;;;;;;4998818;28;20223;-78
2021/03/04 16:48:04;;;;;;;1.00;1.00;;;6.60;99.90;;;;;;4996093;28;20692;-75
2021/03/04 16:50:31;;;;;;;1.20;1.20;;;;;;;;;;4993516;28;20290;-80
2021/03/04 16:52:59;;;;;;;1.10;1.10;;;6.60;99.90;;;;;;5007667;28;20203;-78
2021/03/04 16:55:27;;;;;;;1.00;1.00;;;6.50;99.90;;;;;;5016308;28;20266;-77
2021/03/04 16:57:55;;;;;;;1.10;1.10;;;;;;;;;;5014090;28;20246;-78
2021/03/04 17:00:22;;;;;;;1.20;1.20;;;6.10;99.90;;;;;;5015038;28;20676;-76
2021/03/04 17:03:04;;;;;;;1.10;1.10;;;6.20;99.90;;;;;;5018363;28;20209;-77
2021/03/04 17:05:31;;;;;;;1.00;1.00;;;6.20;99.90;;;;;;5016931;28;20243;-78
2021/03/04 17:07:58;;;;;;;1.00;1.00;;;;;;;;;;5021137;28;20218;-77
2021/03/04 17:10:27;;;;;;;1.20;1.20;;;6.50;99.90;;;;;;5022012;28;20206;-77
2021/03/04 17:12:55;;;;;;;1.10;1.10;;;;;;;;;;5023113;28;20739;-77
2021/03/04 17:15:22;;;;;;;1.00;1.00;;;;;;;;;;5016158;28;20253;-77
2021/03/04 17:17:50;;;;;;;1.03;1.03;;;;;;;;;;5023908;28;20203;-77
2021/03/04 17:20:18;;;;;;;1.10;1.10;;;6.30;99.90;;;;;;5021321;28;20203;-77
2021/03/04 17:22:45;;;;;;;1.10;1.10;;;6.00;99.90;;;;;;5019031;28;20207;-77
2021/03/04 17:25:12;;;;;;;1.00;1.00;;;;;;;;;;5036348;23;20223;-78
2021/03/04 17:27:40;;;;;;;1.10;1.10;;;6.20;99.90;;;;;;5011966;28;20215;-76
2021/03/04 17:30:16;;;;;;;1.23;1.23;;;6.10;99.90;;;;;;5012604;28;20207;-79
2021/03/04 17:32:43;;;;;;;1.10;1.10;;;;;;;;;;5012212;28;20705;-76
2021/03/04 17:35:11;;;;;;;1.10;1.10;;;6.30;99.90;;;;;;5012132;28;20227;-77
2021/03/04 17:37:38;;;;;;;1.13;1.13;;;6.70;99.90;;;;;;5012821;28;20208;-78
2021/03/04 17:40:06;;;;;;;1.00;1.00;;;6.00;99.90;;;;;;5013300;28;20680;-79
2021/03/04 17:42:36;;;;;;;1.00;1.00;;;6.00;99.90;;;;;;5012584;28;20203;-77
2021/03/04 17:45:05;;;;;;;1.03;1.03;;;5.90;99.90;;;;;;5013219;28;20223;-77
2021/03/04 17:47:37;;;;;;;1.17;1.17;;;5.70;99.90;;;;;;5013371;28;20279;-80
2021/03/04 17:50:18;;;;;;;1.30;1.30;;;6.60;99.90;;;;;;5012466;28;20315;-78
2021/03/04 17:52:50;;;;;;;1.10;1.10;;;;;;;;;;5012167;28;20208;-78
2021/03/04 17:55:19;;;;;;;1.23;1.23;;;;;;;;;;5012222;28;20620;-78
2021/03/04 17:57:52;;;;;;;1.10;1.10;;;;;;;;;;5010142;28;20953;-75
2021/03/04 18:00:24;;;;;;;1.17;1.17;;;5.60;99.90;;;;;;5011361;28;20207;-77
2021/03/04 18:02:54;;;;;;;1.20;1.20;;;5.60;99.90;;;;;;5011630;28;20263;-77
2021/03/04 18:05:22;;;;;;;1.23;1.23;;;;;;;;;;5013374;28;20277;-79
2021/03/04 18:07:51;;;;;;;1.20;1.20;;;;;;;;;;5012654;28;20235;-79
2021/03/04 18:10:18;;;;;;;1.10;1.10;;;;;;;;;;5011403;28;20250;-79
2021/03/04 18:12:45;;;;;;;1.20;1.20;;;5.30;99.90;;;;;;5015141;28;20302;-78
2021/03/04 18:15:12;;;;;;;1.20;1.20;;;5.60;99.90;;;;;;5016583;28;20337;-79
2021/03/04 18:17:40;;;;;;;1.03;1.03;;;5.70;99.90;;;;;;5017682;28;20200;-78
2021/03/04 18:20:12;;;;;;;1.10;1.10;;;5.60;99.90;;;;;;5015753;28;20204;-77
2021/03/04 18:22:39;;;;;;;1.30;1.30;;;5.70;99.90;;;;;;5015294;28;20206;-80
2021/03/04 18:25:07;;;;;;;1.00;1.00;;;5.70;99.90;;;;;;5016020;28;20239;-80
2021/03/04 18:27:34;;;;;;;1.30;1.30;;;5.70;99.90;;;;;;5015940;28;20227;-80